createdAt,value
2022-12-23T00:00:29.169Z,98270.66
2022-12-23T00:02:56.163Z,98283.22
2022-12-23T00:05:22.895Z,98262.84
2022-12-23T00:07:49.584Z,98283.91
2022-12-23T00:10:16.253Z,98266.56
2022-12-23T00:13:01.310Z,98290.81
2022-12-23T00:15:27.863Z,98300.81
2022-12-23T00:17:54.496Z,98285.59
2022-12-23T00:20:21.141Z,98258.75
2022-12-23T00:23:05.934Z,98257.41
2022-12-23T00:25:46.204Z,98306.72
2022-12-23T00:28:18.438Z,98289.97
2022-12-23T00:30:47.070Z,98309.47
2022-12-23T00:33:15.906Z,98255.13
2022-12-23T00:35:43.621Z,98271.63
2022-12-23T00:38:10.456Z,98300.69
2022-12-23T00:40:56.084Z,98293.69
2022-12-23T00:43:22.940Z,98291.66
2022-12-23T00:45:49.679Z,98250.91
2022-12-23T00:48:34.914Z,98303.47
2022-12-23T00:51:01.647Z,98263.69
2022-12-23T00:53:28.277Z,98296.38
2022-12-23T00:55:54.967Z,98257.75
2022-12-23T00:58:22.104Z,98284.16
2022-12-23T01:01:07.727Z,98258.13
2022-12-23T01:03:52.884Z,98268.50
2022-12-23T01:06:19.599Z,98262.69
2022-12-23T01:08:46.207Z,98232.91
2022-12-23T01:11:13.149Z,98265.81
2022-12-23T01:13:39.863Z,98265.00
2022-12-23T01:16:15.009Z,98268.97
2022-12-23T01:18:44.269Z,98208.56
2022-12-23T01:21:11.253Z,98235.34
2022-12-23T01:23:38.075Z,98277.31
2022-12-23T01:26:07.192Z,98276.34
2022-12-23T01:28:35.297Z,98241.97
2022-12-23T01:31:04.484Z,98266.31
2022-12-23T01:33:33.669Z,98264.06
2022-12-23T01:36:05.876Z,98242.72
2022-12-23T01:38:32.957Z,98264.75
2022-12-23T01:41:00.191Z,98220.50
2022-12-23T01:43:48.470Z,98238.94
2022-12-23T01:46:15.304Z,98221.00
2022-12-23T01:48:48.258Z,98240.31
2022-12-23T01:51:28.612Z,98214.75
2022-12-23T01:54:01.201Z,98209.66
2022-12-23T01:56:27.969Z,98245.00
2022-12-23T01:58:59.559Z,98230.66
2022-12-23T02:01:45.572Z,98237.63
2022-12-23T02:04:18.812Z,98207.50
2022-12-23T02:07:06.974Z,98244.50
2022-12-23T02:09:36.188Z,98235.69
2022-12-23T02:12:08.811Z,98232.34
2022-12-23T02:15:24.244Z,98236.56
2022-12-23T02:18:30.836Z,98215.47
2022-12-23T02:21:15.844Z,98241.03
2022-12-23T02:24:01.176Z,98236.69
2022-12-23T02:26:58.743Z,98235.63
2022-12-23T02:30:04.860Z,98196.91
2022-12-23T02:32:53.512Z,98229.59
2022-12-23T02:35:27.882Z,98202.44
2022-12-23T02:37:54.442Z,98232.22
2022-12-23T02:40:42.778Z,98237.06
2022-12-23T02:43:46.446Z,98235.59
2022-12-23T02:46:26.707Z,98215.72
2022-12-23T02:49:13.134Z,98215.25
2022-12-23T02:51:47.508Z,98228.59
2022-12-23T02:54:18.284Z,98211.50
2022-12-23T02:56:51.030Z,98203.06
2022-12-23T02:59:30.458Z,98165.34
2022-12-23T03:01:58.777Z,98229.44
2022-12-23T03:04:25.508Z,98222.69
2022-12-23T03:06:55.905Z,98230.66
2022-12-23T03:09:39.614Z,98225.34
2022-12-23T03:12:16.588Z,98194.03
2022-12-23T03:15:11.348Z,98223.78
2022-12-23T03:17:45.598Z,98192.44
2022-12-23T03:20:25.902Z,98235.00
2022-12-23T03:23:08.203Z,98232.94
2022-12-23T03:25:43.946Z,98181.00
2022-12-23T03:28:31.239Z,98233.06
2022-12-23T03:31:02.157Z,98210.06
2022-12-23T03:33:34.012Z,98206.81
2022-12-23T03:36:06.982Z,98206.06
2022-12-23T03:38:37.732Z,98210.06
2022-12-23T03:41:12.301Z,98204.75
2022-12-23T03:43:50.608Z,98208.84
2022-12-23T03:46:31.969Z,98182.19
2022-12-23T03:49:06.082Z,98189.69
2022-12-23T03:51:56.374Z,98202.22
2022-12-23T03:54:32.001Z,98189.19
2022-12-23T03:57:04.661Z,98215.00
2022-12-23T03:59:39.245Z,98172.81
2022-12-23T04:02:38.173Z,98210.44
2022-12-23T04:05:13.938Z,98206.44
2022-12-23T04:07:46.882Z,98203.66
2022-12-23T04:10:14.938Z,98185.84
2022-12-23T04:12:41.910Z,98194.75
2022-12-23T04:15:12.817Z,98193.06
2022-12-23T04:17:40.156Z,98174.16
2022-12-23T04:20:07.514Z,98192.00
2022-12-23T04:22:34.213Z,98185.59
2022-12-23T04:25:00.840Z,98196.19
2022-12-23T04:27:27.401Z,98190.03
2022-12-23T04:29:54.005Z,98178.25
2022-12-23T04:32:20.871Z,98188.25
2022-12-23T04:34:47.549Z,98180.19
2022-12-23T04:37:14.218Z,98183.19
2022-12-23T04:39:40.771Z,98198.00
2022-12-23T04:42:07.401Z,98195.97
2022-12-23T04:44:34.221Z,98168.00
2022-12-23T04:47:00.949Z,98176.56
2022-12-23T04:49:27.649Z,98229.09
2022-12-23T04:51:54.228Z,98198.59
2022-12-23T04:54:20.851Z,98191.84
2022-12-23T04:56:47.459Z,98171.47
2022-12-23T04:59:14.239Z,98158.72
2022-12-23T05:01:42.466Z,98189.44
2022-12-23T05:04:10.368Z,98199.44
2022-12-23T05:06:37.810Z,98187.88
2022-12-23T05:09:05.196Z,98217.50
2022-12-23T05:11:35.933Z,98189.44
2022-12-23T05:14:05.141Z,98220.88
2022-12-23T05:16:32.179Z,98168.94
2022-12-23T05:18:58.864Z,98203.63
2022-12-23T05:21:25.493Z,98197.41
2022-12-23T05:23:52.459Z,98207.50
2022-12-23T05:26:19.529Z,98212.06
2022-12-23T05:28:46.276Z,98202.44
2022-12-23T05:31:13.791Z,98232.19
2022-12-23T05:33:41.238Z,98232.47
2022-12-23T05:36:08.185Z,98211.97
2022-12-23T05:38:34.979Z,98210.03
2022-12-23T05:41:02.420Z,98236.31
2022-12-23T05:43:29.346Z,98227.75
2022-12-23T05:45:56.011Z,98244.72
2022-12-23T05:48:22.823Z,98209.16
2022-12-23T05:50:51.584Z,98242.81
2022-12-23T05:53:18.904Z,98257.28
2022-12-23T05:55:45.949Z,98255.59
2022-12-23T05:58:12.619Z,98198.59
2022-12-23T06:00:39.182Z,98231.25
2022-12-23T06:03:05.879Z,98264.63
2022-12-23T06:05:32.753Z,98217.03
2022-12-23T06:07:59.463Z,98234.09
2022-12-23T06:10:26.187Z,98249.41
2022-12-23T06:12:52.919Z,98243.09
2022-12-23T06:15:19.616Z,98257.94
2022-12-23T06:17:46.201Z,98227.44
2022-12-23T06:20:20.239Z,98215.75
2022-12-23T06:22:48.077Z,98266.38
2022-12-23T06:25:14.725Z,98252.25
2022-12-23T06:27:41.368Z,98276.63
2022-12-23T06:30:08.695Z,98253.72
2022-12-23T06:32:38.643Z,98291.41
2022-12-23T06:35:07.257Z,98241.16
2022-12-23T06:37:33.984Z,98251.50
2022-12-23T06:40:00.535Z,98250.88
2022-12-23T06:42:27.158Z,98286.16
2022-12-23T06:44:53.957Z,98262.81
2022-12-23T06:47:20.547Z,98281.88
2022-12-23T06:49:47.224Z,98290.44
2022-12-23T06:52:13.823Z,98241.25
2022-12-23T06:54:40.492Z,98213.34
2022-12-23T06:57:07.201Z,98278.22
2022-12-23T06:59:33.890Z,98267.31
2022-12-23T07:02:00.937Z,98271.88
2022-12-23T07:04:28.697Z,98269.91
2022-12-23T07:06:55.297Z,98252.25
2022-12-23T07:09:22.087Z,98245.06
2022-12-23T07:11:48.699Z,98274.84
2022-12-23T07:14:15.421Z,98232.75
2022-12-23T07:16:42.119Z,98267.75
2022-12-23T07:19:08.679Z,98229.47
2022-12-23T07:21:36.740Z,98226.47
2022-12-23T07:24:03.494Z,98199.91
2022-12-23T07:26:30.249Z,98245.56
2022-12-23T07:28:57.060Z,98258.22
2022-12-23T07:31:24.023Z,98278.81
2022-12-23T07:33:51.683Z,98266.75
2022-12-23T07:36:18.258Z,98241.19
2022-12-23T07:38:44.889Z,98247.19
2022-12-23T07:41:11.583Z,98231.66
2022-12-23T07:43:38.222Z,98284.72
2022-12-23T07:46:11.383Z,98307.47
2022-12-23T07:48:40.512Z,98279.09
2022-12-23T07:51:07.366Z,98260.50
2022-12-23T07:53:34.065Z,98274.44
2022-12-23T07:56:01.079Z,98298.06
2022-12-23T07:58:27.910Z,98295.84
2022-12-23T08:01:07.829Z,98304.88
2022-12-23T08:03:35.126Z,98309.66
2022-12-23T08:06:05.875Z,98275.84
2022-12-23T08:08:32.816Z,98313.03
2022-12-23T08:11:03.005Z,98282.72
2022-12-23T08:13:30.708Z,98286.09
2022-12-23T08:15:58.749Z,98311.16
2022-12-23T08:18:27.191Z,98272.41
2022-12-23T08:20:58.941Z,98273.31
2022-12-23T08:23:27.607Z,98282.69
2022-12-23T08:26:00.636Z,98309.13
2022-12-23T08:28:27.914Z,98285.97
2022-12-23T08:30:54.953Z,98287.50
2022-12-23T08:33:21.605Z,98267.75
2022-12-23T08:35:48.259Z,98260.59
2022-12-23T08:38:14.913Z,98299.53
2022-12-23T08:40:41.834Z,98275.81
2022-12-23T08:43:08.546Z,98274.75
2022-12-23T08:45:39.097Z,98285.16
2022-12-23T08:48:06.980Z,98302.25
2022-12-23T08:50:39.110Z,98292.47
2022-12-23T08:53:06.458Z,98260.19
2022-12-23T08:55:41.630Z,98293.78
2022-12-23T08:58:09.111Z,98283.66
2022-12-23T09:00:36.940Z,98286.00
2022-12-23T09:03:04.036Z,98271.38
2022-12-23T09:05:31.354Z,98252.03
2022-12-23T09:07:59.604Z,98293.31
2022-12-23T09:10:26.869Z,98281.16
2022-12-23T09:12:57.707Z,98279.34
2022-12-23T09:15:24.929Z,98269.91
2022-12-23T09:17:51.512Z,98275.06
2022-12-23T09:20:18.148Z,98273.47
2022-12-23T09:22:45.018Z,98260.72
2022-12-23T09:25:11.687Z,98271.97
2022-12-23T09:27:38.369Z,98250.69
2022-12-23T09:30:05.479Z,98250.03
2022-12-23T09:32:33.506Z,98219.72
2022-12-23T09:35:00.136Z,98240.50
2022-12-23T09:37:26.786Z,98223.41
2022-12-23T09:39:53.341Z,98246.69
2022-12-23T09:42:48.345Z,98273.53
2022-12-23T09:45:40.542Z,98273.38
2022-12-23T09:48:16.885Z,98254.00
2022-12-23T09:50:43.804Z,98239.53
2022-12-23T09:53:18.051Z,98237.38
2022-12-23T09:56:00.150Z,98263.84
2022-12-23T09:58:43.347Z,98256.56
2022-12-23T10:01:24.733Z,98261.22
2022-12-23T10:04:21.955Z,98261.31
2022-12-23T10:07:17.168Z,98268.63
2022-12-23T10:09:46.053Z,98237.31
2022-12-23T10:12:41.222Z,98192.97
2022-12-23T10:15:18.947Z,98214.41
2022-12-23T10:17:48.835Z,98225.50
2022-12-23T10:20:32.675Z,98247.19
2022-12-23T10:22:59.861Z,98233.25
2022-12-23T10:25:31.065Z,98232.53
2022-12-23T10:27:57.827Z,98235.19
2022-12-23T10:30:54.032Z,98216.94
2022-12-23T10:33:22.938Z,98240.19
2022-12-23T10:36:01.569Z,98224.97
2022-12-23T10:38:32.871Z,98226.81
2022-12-23T10:41:09.537Z,98229.66
2022-12-23T10:44:03.958Z,98215.22
2022-12-23T10:46:48.662Z,98213.31
2022-12-23T10:49:32.663Z,98202.03
2022-12-23T10:52:03.345Z,98217.41
2022-12-23T10:54:35.490Z,98214.38
2022-12-23T10:57:03.831Z,98214.91
2022-12-23T10:59:35.900Z,98192.88
2022-12-23T11:02:12.590Z,98222.41
2022-12-23T11:04:40.704Z,98222.34
2022-12-23T11:07:42.707Z,98213.34
2022-12-23T11:10:17.744Z,98220.78
2022-12-23T11:12:59.135Z,98221.91
2022-12-23T11:15:27.804Z,98186.28
2022-12-23T11:18:06.617Z,98218.88
2022-12-23T11:20:36.603Z,98212.91
2022-12-23T11:23:08.486Z,98217.66
2022-12-23T11:25:36.811Z,98210.94
2022-12-23T11:28:15.357Z,98217.06
2022-12-23T11:30:55.891Z,98225.22
2022-12-23T11:33:25.697Z,98208.28
2022-12-23T11:36:06.967Z,98212.25
2022-12-23T11:38:38.074Z,98187.22
2022-12-23T11:41:05.896Z,98209.91
2022-12-23T11:43:34.304Z,98199.47
2022-12-23T11:46:25.546Z,98192.97
2022-12-23T11:49:16.874Z,98208.03
2022-12-23T11:51:46.703Z,98189.44
2022-12-23T11:54:19.913Z,98169.00
2022-12-23T11:56:51.252Z,98160.78
2022-12-23T11:59:32.914Z,98194.81
2022-12-23T12:02:03.639Z,98149.34
2022-12-23T12:04:35.459Z,98133.94
2022-12-23T12:07:04.282Z,98154.41
2022-12-23T12:09:32.753Z,98184.22
2022-12-23T12:12:15.781Z,98160.84
2022-12-23T12:14:50.253Z,98189.03
2022-12-23T12:17:41.069Z,98187.59
2022-12-23T12:20:35.884Z,98166.66
2022-12-23T12:23:06.916Z,98153.84
2022-12-23T12:25:45.023Z,98148.47
2022-12-23T12:28:19.561Z,98175.25
2022-12-23T12:31:06.116Z,98173.63
2022-12-23T12:33:56.217Z,98167.56
2022-12-23T12:37:10.865Z,98179.97
2022-12-23T12:39:40.578Z,98189.50
2022-12-23T12:42:34.589Z,98178.84
2022-12-23T12:45:17.946Z,98187.63
2022-12-23T12:48:22.436Z,98196.00
2022-12-23T12:51:12.149Z,98163.78
2022-12-23T12:53:46.066Z,98176.94
2022-12-23T12:56:25.465Z,98155.28
2022-12-23T12:58:52.159Z,98162.16
2022-12-23T13:01:24.764Z,98202.88
2022-12-23T13:04:03.437Z,98196.38
2022-12-23T13:07:22.976Z,98194.34
2022-12-23T13:10:00.152Z,98198.38
2022-12-23T13:13:14.964Z,98196.47
2022-12-23T13:15:54.719Z,98205.25
2022-12-23T13:18:40.494Z,98199.41
2022-12-23T13:21:22.982Z,98195.06
2022-12-23T13:23:52.288Z,98200.22
2022-12-23T13:26:38.988Z,98190.91
2022-12-23T13:29:43.894Z,98190.69
2022-12-23T13:32:19.606Z,98203.38
2022-12-23T13:34:58.084Z,98193.31
2022-12-23T13:37:33.117Z,98197.03
2022-12-23T13:40:30.587Z,98194.88
2022-12-23T13:43:04.955Z,98187.38
2022-12-23T13:45:36.500Z,98195.66
2022-12-23T13:48:10.121Z,98196.81
2022-12-23T13:50:43.902Z,98171.22
2022-12-23T13:53:52.101Z,98192.19
2022-12-23T13:56:44.283Z,98188.00
2022-12-23T13:59:13.004Z,98168.34
2022-12-23T14:01:48.558Z,98160.78
2022-12-23T14:04:36.184Z,98194.66
2022-12-23T14:07:21.129Z,98196.28
2022-12-23T14:09:53.681Z,98200.59
2022-12-23T14:12:27.297Z,98199.19
2022-12-23T14:15:15.215Z,98190.34
2022-12-23T14:17:50.073Z,98158.97
2022-12-23T14:20:28.767Z,98188.91
2022-12-23T14:23:34.747Z,98159.19
2022-12-23T14:26:16.603Z,98194.75
2022-12-23T14:29:15.550Z,98198.78
2022-12-23T14:31:54.227Z,98188.44
2022-12-23T14:34:20.825Z,98187.91
2022-12-23T14:37:21.324Z,98199.91
2022-12-23T14:39:49.405Z,98196.38
2022-12-23T14:42:41.047Z,98197.63
2022-12-23T14:45:41.652Z,98192.63
2022-12-23T14:48:36.204Z,98194.66
2022-12-23T14:51:31.421Z,98208.84
2022-12-23T14:53:58.214Z,98206.81
2022-12-23T14:56:30.666Z,98209.88
2022-12-23T14:59:09.510Z,98197.94
2022-12-23T15:01:40.825Z,98206.53
2022-12-23T15:04:13.984Z,98209.19
2022-12-23T15:06:47.707Z,98216.06
2022-12-23T15:09:30.857Z,98173.44
2022-12-23T15:12:04.954Z,98165.06
2022-12-23T15:14:38.638Z,98176.44
2022-12-23T15:17:35.733Z,98197.44
2022-12-23T15:20:12.374Z,98198.47
2022-12-23T15:22:41.032Z,98173.25
2022-12-23T15:25:27.016Z,98165.56
2022-12-23T15:28:01.562Z,98204.13
2022-12-23T15:30:37.508Z,98177.94
2022-12-23T15:33:28.249Z,98169.03
2022-12-23T15:35:57.451Z,98172.91
2022-12-23T15:38:29.357Z,98157.06
2022-12-23T15:40:58.980Z,98179.84
2022-12-23T15:43:25.958Z,98184.66
2022-12-23T15:45:53.135Z,98209.03
2022-12-23T15:48:25.721Z,98188.34
2022-12-23T15:51:06.770Z,98185.41
2022-12-23T15:53:40.047Z,98176.50
2022-12-23T15:56:26.578Z,98207.72
2022-12-23T15:58:55.297Z,98226.84
2022-12-23T16:01:22.550Z,98225.38
2022-12-23T16:03:59.066Z,98221.84
2022-12-23T16:06:29.808Z,98226.34
2022-12-23T16:08:57.749Z,98192.41
2022-12-23T16:11:24.466Z,98190.88
2022-12-23T16:14:20.304Z,98235.03
2022-12-23T16:16:47.195Z,98201.25
2022-12-23T16:19:41.282Z,98230.03
2022-12-23T16:22:36.274Z,98235.72
2022-12-23T16:25:12.453Z,98237.94
2022-12-23T16:27:43.119Z,98224.84
2022-12-23T16:30:22.167Z,98208.06
2022-12-23T16:32:55.441Z,98211.25
2022-12-23T16:35:37.828Z,98189.78
2022-12-23T16:38:12.307Z,98180.38
2022-12-23T16:40:39.705Z,98237.09
2022-12-23T16:43:06.717Z,98215.41
2022-12-23T16:45:34.941Z,98222.97
2022-12-23T16:48:07.087Z,98202.69
2022-12-23T16:50:33.846Z,98174.00
2022-12-23T16:53:00.468Z,98217.97
2022-12-23T16:55:27.099Z,98196.41
2022-12-23T16:57:53.743Z,98224.47
2022-12-23T17:00:21.830Z,98232.69
2022-12-23T17:02:48.747Z,98219.44
2022-12-23T17:05:18.274Z,98210.59
2022-12-23T17:07:46.033Z,98219.31
2022-12-23T17:10:15.810Z,98247.84
2022-12-23T17:12:43.181Z,98217.59
2022-12-23T17:15:25.722Z,98226.47
2022-12-23T17:17:54.429Z,98208.19
2022-12-23T17:20:23.150Z,98254.25
2022-12-23T17:22:54.092Z,98254.91
2022-12-23T17:25:26.270Z,98262.44
2022-12-23T17:27:56.152Z,98242.50
2022-12-23T17:30:25.837Z,98229.69
2022-12-23T17:32:58.772Z,98224.69
2022-12-23T17:35:26.098Z,98220.66
2022-12-23T17:37:53.314Z,98220.09
2022-12-23T17:40:20.506Z,98247.53
2022-12-23T17:42:47.409Z,98245.78
2022-12-23T17:45:26.455Z,98244.09
2022-12-23T17:47:53.216Z,98239.38
2022-12-23T17:50:20.223Z,98260.56
2022-12-23T17:52:47.054Z,98250.88
2022-12-23T17:55:23.190Z,98264.81
2022-12-23T17:57:50.335Z,98250.88
2022-12-23T18:00:25.301Z,98260.03
2022-12-23T18:02:58.317Z,98226.00
2022-12-23T18:05:30.662Z,98259.19
2022-12-23T18:07:58.843Z,98262.06
2022-12-23T18:10:28.959Z,98263.38
2022-12-23T18:13:01.723Z,98256.00
2022-12-23T18:15:38.381Z,98257.66
2022-12-23T18:18:20.557Z,98252.28
2022-12-23T18:20:54.900Z,98216.34
2022-12-23T18:23:25.586Z,98265.00
2022-12-23T18:25:52.714Z,98220.84
2022-12-23T18:28:19.366Z,98227.19
2022-12-23T18:30:46.471Z,98224.56
2022-12-23T18:33:14.364Z,98229.25
2022-12-23T18:35:47.823Z,98216.47
2022-12-23T18:38:16.162Z,98248.38
2022-12-23T18:40:43.837Z,98228.88
2022-12-23T18:43:22.390Z,98230.00
2022-12-23T18:45:53.242Z,98243.25
2022-12-23T18:48:20.441Z,98219.53
2022-12-23T18:50:47.207Z,98220.03
2022-12-23T18:53:24.724Z,98254.06
2022-12-23T18:55:52.883Z,98208.19
2022-12-23T18:58:20.920Z,98242.91
2022-12-23T19:00:49.060Z,98250.03
2022-12-23T19:03:33.654Z,98239.19
2022-12-23T19:06:06.693Z,98229.97
2022-12-23T19:08:35.713Z,98249.88
2022-12-23T19:11:02.896Z,98243.53
2022-12-23T19:13:29.684Z,98230.44
2022-12-23T19:15:56.377Z,98218.44
2022-12-23T19:18:23.117Z,98237.69
2022-12-23T19:20:50.060Z,98226.28
2022-12-23T19:23:17.400Z,98241.16
2022-12-23T19:25:52.666Z,98215.84
2022-12-23T19:28:21.891Z,98254.41
2022-12-23T19:30:49.142Z,98217.31
2022-12-23T19:33:16.146Z,98209.09
2022-12-23T19:35:43.532Z,98226.38
2022-12-23T19:38:10.859Z,98255.56
2022-12-23T19:40:37.702Z,98243.09
2022-12-23T19:43:04.662Z,98209.88
2022-12-23T19:45:31.375Z,98248.91
2022-12-23T19:47:58.091Z,98216.38
2022-12-23T19:50:26.493Z,98215.81
2022-12-23T19:52:54.768Z,98201.38
2022-12-23T19:55:21.450Z,98208.81
2022-12-23T19:57:48.198Z,98230.72
2022-12-23T20:00:16.004Z,98228.47
2022-12-23T20:02:43.637Z,98201.84
2022-12-23T20:05:10.359Z,98209.69
2022-12-23T20:07:37.416Z,98240.56
2022-12-23T20:10:05.799Z,98250.63
2022-12-23T20:12:32.503Z,98247.25
2022-12-23T20:15:00.407Z,98218.66
2022-12-23T20:17:27.067Z,98213.63
2022-12-23T20:19:53.651Z,98202.16
2022-12-23T20:22:20.417Z,98209.72
2022-12-23T20:24:47.104Z,98235.22
2022-12-23T20:27:15.875Z,98181.66
2022-12-23T20:29:42.873Z,98179.56
2022-12-23T20:32:09.539Z,98182.22
2022-12-23T20:34:39.578Z,98198.63
2022-12-23T20:37:07.716Z,98236.06
2022-12-23T20:39:34.664Z,98212.09
2022-12-23T20:42:01.388Z,98197.38
2022-12-23T20:44:36.878Z,98216.31
2022-12-23T20:47:05.590Z,98207.63
2022-12-23T20:49:32.512Z,98222.34
2022-12-23T20:51:59.321Z,98203.69
2022-12-23T20:54:32.267Z,98192.75
2022-12-23T20:57:00.790Z,98184.66
2022-12-23T20:59:27.420Z,98184.78
2022-12-23T21:01:54.099Z,98212.81
2022-12-23T21:04:20.999Z,98200.34
2022-12-23T21:06:47.641Z,98249.44
2022-12-23T21:09:14.946Z,98215.09
2022-12-23T21:11:44.189Z,98210.56
2022-12-23T21:14:11.679Z,98227.69
2022-12-23T21:16:38.808Z,98200.34
2022-12-23T21:19:07.473Z,98221.25
2022-12-23T21:21:35.276Z,98226.28
2022-12-23T21:24:04.760Z,98240.91
2022-12-23T21:26:33.353Z,98239.06
2022-12-23T21:29:01.104Z,98237.81
2022-12-23T21:31:29.390Z,98212.69
2022-12-23T21:33:56.355Z,98230.81
2022-12-23T21:36:26.530Z,98243.97
2022-12-23T21:38:53.779Z,98223.78
2022-12-23T21:41:23.554Z,98235.00
2022-12-23T21:43:50.973Z,98229.94
2022-12-23T21:46:20.828Z,98227.56
2022-12-23T21:48:48.792Z,98229.94
2022-12-23T21:51:19.556Z,98191.94
2022-12-23T21:53:48.739Z,98219.88
2022-12-23T21:56:18.113Z,98211.88
2022-12-23T21:58:45.774Z,98216.47
2022-12-23T22:01:15.452Z,98209.19
2022-12-23T22:03:43.612Z,98205.69
2022-12-23T22:06:13.802Z,98203.56
2022-12-23T22:08:41.124Z,98181.13
2022-12-23T22:11:09.828Z,98190.09
2022-12-23T22:13:37.334Z,98152.09
2022-12-23T22:16:05.128Z,98165.84
2022-12-23T22:18:31.977Z,98167.81
2022-12-23T22:20:58.678Z,98168.38
2022-12-23T22:23:25.272Z,98151.69
2022-12-23T22:25:56.007Z,98188.16
2022-12-23T22:28:23.018Z,98204.00
2022-12-23T22:30:49.848Z,98198.81
2022-12-23T22:33:16.812Z,98150.84
2022-12-23T22:35:43.439Z,98184.50
2022-12-23T22:38:10.213Z,98213.94
2022-12-23T22:40:36.872Z,98157.97
2022-12-23T22:43:03.557Z,98153.63
2022-12-23T22:45:30.281Z,98161.91
2022-12-23T22:47:57.606Z,98169.22
2022-12-23T22:50:24.137Z,98164.31
2022-12-23T22:52:50.826Z,98188.28
2022-12-23T22:55:17.533Z,98187.19
2022-12-23T22:57:44.151Z,98149.44
2022-12-23T23:00:12.753Z,98190.38
2022-12-23T23:02:39.657Z,98184.38
2022-12-23T23:05:12.439Z,98171.84
2022-12-23T23:07:40.098Z,98192.59
2022-12-23T23:10:07.499Z,98176.91
2022-12-23T23:12:34.165Z,98212.25
2022-12-23T23:15:00.911Z,98180.28
2022-12-23T23:17:28.964Z,98160.19
2022-12-23T23:19:56.018Z,98191.75
2022-12-23T23:22:24.405Z,98216.75
2022-12-23T23:24:51.735Z,98175.47
2022-12-23T23:27:19.295Z,98194.16
2022-12-23T23:29:45.970Z,98193.75
2022-12-23T23:32:12.828Z,98190.06
2022-12-23T23:34:40.641Z,98201.00
2022-12-23T23:37:07.286Z,98204.94
2022-12-23T23:39:33.943Z,98157.78
2022-12-23T23:42:00.797Z,98169.03
2022-12-23T23:44:27.707Z,98184.88
2022-12-23T23:46:54.339Z,98150.06
2022-12-23T23:49:21.995Z,98157.94
2022-12-23T23:51:50.053Z,98191.34
2022-12-23T23:54:16.698Z,98157.78
2022-12-23T23:56:43.328Z,98185.00
2022-12-23T23:59:10.027Z,98200.16
